sensor_id;sensor_type;location;lat;lon;timestamp;pressure;altitude;pressure_sealevel;temperature;humidity
74633;BME280;63139;52.018;8.552;2023-02-28T00:01:23;101997.03;;;-2.53;82.98
74633;BME280;63139;52.018;8.552;2023-02-28T00:03:53;102002.06;;;-2.48;83.27
74633;BME280;63139;52.018;8.552;2023-02-28T00:06:21;101999.34;;;-2.44;83.30
74633;BME280;63139;52.018;8.552;2023-02-28T00:08:49;101997.38;;;-2.37;83.55
74633;BME280;63139;52.018;8.552;2023-02-28T00:11:17;101995.47;;;-2.30;83.48
74633;BME280;63139;52.018;8.552;2023-02-28T00:13:46;101992.69;;;-2.24;83.47
74633;BME280;63139;52.018;8.552;2023-02-28T00:16:16;101989.00;;;-2.17;83.24
74633;BME280;63139;52.018;8.552;2023-02-28T00:18:44;101984.47;;;-2.11;83.25
74633;BME280;63139;52.018;8.552;2023-02-28T00:21:15;101982.53;;;-2.06;82.48
74633;BME280;63139;52.018;8.552;2023-02-28T00:23:43;101976.34;;;-2.00;82.50
74633;BME280;63139;52.018;8.552;2023-02-28T00:26:11;101983.91;;;-1.94;82.75
74633;BME280;63139;52.018;8.552;2023-02-28T00:28:43;101985.44;;;-1.88;82.44
74633;BME280;63139;52.018;8.552;2023-02-28T00:31:10;101994.88;;;-1.86;82.56
74633;BME280;63139;52.018;8.552;2023-02-28T00:33:38;101992.13;;;-1.81;82.33
74633;BME280;63139;52.018;8.552;2023-02-28T00:36:08;101995.44;;;-1.78;82.29
74633;BME280;63139;52.018;8.552;2023-02-28T00:38:38;101999.72;;;-1.77;82.19
74633;BME280;63139;52.018;8.552;2023-02-28T00:41:06;101998.78;;;-1.74;81.76
74633;BME280;63139;52.018;8.552;2023-02-28T00:43:36;102003.94;;;-1.73;81.76
74633;BME280;63139;52.018;8.552;2023-02-28T00:46:04;102005.63;;;-1.72;82.07
74633;BME280;63139;52.018;8.552;2023-02-28T00:48:32;101994.41;;;-1.72;81.83
74633;BME280;63139;52.018;8.552;2023-02-28T00:51:00;102000.50;;;-1.73;81.30
74633;BME280;63139;52.018;8.552;2023-02-28T00:53:29;102000.53;;;-1.75;81.33
74633;BME280;63139;52.018;8.552;2023-02-28T00:56:00;102004.16;;;-1.79;80.98
74633;BME280;63139;52.018;8.552;2023-02-28T00:58:28;102002.53;;;-1.83;81.29
74633;BME280;63139;52.018;8.552;2023-02-28T01:00:56;102003.56;;;-1.87;81.65
74633;BME280;63139;52.018;8.552;2023-02-28T01:03:24;102003.69;;;-1.91;81.41
74633;BME280;63139;52.018;8.552;2023-02-28T01:05:52;102011.69;;;-1.98;81.24
74633;BME280;63139;52.018;8.552;2023-02-28T01:08:20;102007.59;;;-2.05;81.44
74633;BME280;63139;52.018;8.552;2023-02-28T01:10:49;102001.72;;;-2.10;81.74
74633;BME280;63139;52.018;8.552;2023-02-28T01:13:19;102004.50;;;-2.16;81.34
74633;BME280;63139;52.018;8.552;2023-02-28T01:15:50;102008.97;;;-2.21;81.79
74633;BME280;63139;52.018;8.552;2023-02-28T01:18:19;102009.13;;;-2.25;82.06
74633;BME280;63139;52.018;8.552;2023-02-28T01:20:48;102005.91;;;-2.32;81.95
74633;BME280;63139;52.018;8.552;2023-02-28T01:23:15;102002.56;;;-2.37;82.53
74633;BME280;63139;52.018;8.552;2023-02-28T01:25:43;102004.47;;;-2.42;82.53
74633;BME280;63139;52.018;8.552;2023-02-28T01:28:11;102004.66;;;-2.48;82.63
74633;BME280;63139;52.018;8.552;2023-02-28T01:30:40;102005.66;;;-2.52;82.68
74633;BME280;63139;52.018;8.552;2023-02-28T01:33:08;102004.16;;;-2.59;82.45
74633;BME280;63139;52.018;8.552;2023-02-28T01:35:36;102006.00;;;-2.63;82.76
74633;BME280;63139;52.018;8.552;2023-02-28T01:38:04;102007.81;;;-2.66;83.07
74633;BME280;63139;52.018;8.552;2023-02-28T01:40:47;102003.69;;;-2.74;82.95
74633;BME280;63139;52.018;8.552;2023-02-28T01:43:21;102002.16;;;-2.79;82.91
74633;BME280;63139;52.018;8.552;2023-02-28T01:45:53;101998.84;;;-2.84;83.13
74633;BME280;63139;52.018;8.552;2023-02-28T01:48:24;101991.19;;;-2.89;83.41
74633;BME280;63139;52.018;8.552;2023-02-28T01:50:55;101991.34;;;-2.93;83.03
74633;BME280;63139;52.018;8.552;2023-02-28T01:53:31;101994.94;;;-2.97;83.62
74633;BME280;63139;52.018;8.552;2023-02-28T01:55:59;101994.13;;;-2.99;84.41
74633;BME280;63139;52.018;8.552;2023-02-28T01:58:28;101998.50;;;-3.01;84.16
74633;BME280;63139;52.018;8.552;2023-02-28T02:00:57;102000.22;;;-3.02;84.13
74633;BME280;63139;52.018;8.552;2023-02-28T02:03:25;102001.19;;;-3.04;83.61
74633;BME280;63139;52.018;8.552;2023-02-28T02:05:53;102004.66;;;-3.05;84.30
74633;BME280;63139;52.018;8.552;2023-02-28T02:08:23;101998.66;;;-3.07;84.17
74633;BME280;63139;52.018;8.552;2023-02-28T02:10:52;102009.88;;;-3.07;84.48
74633;BME280;63139;52.018;8.552;2023-02-28T02:13:38;102001.22;;;-3.06;84.76
74633;BME280;63139;52.018;8.552;2023-02-28T02:16:23;102000.22;;;-3.02;84.60
74633;BME280;63139;52.018;8.552;2023-02-28T02:19:02;101997.59;;;-3.00;85.03
74633;BME280;63139;52.018;8.552;2023-02-28T02:22:01;102000.03;;;-2.96;84.53
74633;BME280;63139;52.018;8.552;2023-02-28T02:27:59;102000.81;;;-2.92;84.49
74633;BME280;63139;52.018;8.552;2023-02-28T02:30:43;101994.78;;;-2.93;83.90
74633;BME280;63139;52.018;8.552;2023-02-28T02:33:37;102005.13;;;-2.91;84.03
74633;BME280;63139;52.018;8.552;2023-02-28T02:36:14;101993.91;;;-2.92;84.21
74633;BME280;63139;52.018;8.552;2023-02-28T02:38:50;101992.19;;;-2.93;83.74
74633;BME280;63139;52.018;8.552;2023-02-28T02:41:26;101991.38;;;-2.95;84.14
74633;BME280;63139;52.018;8.552;2023-02-28T02:44:01;101988.84;;;-2.96;84.07
74633;BME280;63139;52.018;8.552;2023-02-28T02:46:33;101988.06;;;-2.98;83.66
74633;BME280;63139;52.018;8.552;2023-02-28T02:49:06;101985.53;;;-3.01;83.85
74633;BME280;63139;52.018;8.552;2023-02-28T02:51:38;101993.44;;;-3.06;83.83
74633;BME280;63139;52.018;8.552;2023-02-28T02:54:11;101990.97;;;-3.10;83.63
74633;BME280;63139;52.018;8.552;2023-02-28T02:56:44;101997.16;;;-3.15;83.70
74633;BME280;63139;52.018;8.552;2023-02-28T02:59:16;101993.78;;;-3.18;84.22
74633;BME280;63139;52.018;8.552;2023-02-28T03:01:50;101998.25;;;-3.23;83.90
74633;BME280;63139;52.018;8.552;2023-02-28T03:04:21;101996.66;;;-3.27;84.34
74633;BME280;63139;52.018;8.552;2023-02-28T03:06:51;101995.91;;;-3.32;83.75
74633;BME280;63139;52.018;8.552;2023-02-28T03:09:21;101994.34;;;-3.38;84.24
74633;BME280;63139;52.018;8.552;2023-02-28T03:11:49;102005.69;;;-3.42;84.26
74633;BME280;63139;52.018;8.552;2023-02-28T03:14:32;102004.91;;;-3.45;84.79
74633;BME280;63139;52.018;8.552;2023-02-28T03:17:25;102002.44;;;-3.50;84.81
74633;BME280;63139;52.018;8.552;2023-02-28T03:20:04;101999.94;;;-3.53;84.68
74633;BME280;63139;52.018;8.552;2023-02-28T03:22:47;101996.63;;;-3.58;84.69
74633;BME280;63139;52.018;8.552;2023-02-28T03:25:25;102000.16;;;-3.62;85.11
74633;BME280;63139;52.018;8.552;2023-02-28T03:28:00;102002.00;;;-3.66;84.71
74633;BME280;63139;52.018;8.552;2023-02-28T03:30:36;101992.72;;;-3.73;84.81
74633;BME280;63139;52.018;8.552;2023-02-28T03:33:08;101992.78;;;-3.76;84.75
74633;BME280;63139;52.018;8.552;2023-02-28T03:35:39;101996.31;;;-3.78;84.79
74633;BME280;63139;52.018;8.552;2023-02-28T03:38:12;101994.59;;;-3.79;85.13
74633;BME280;63139;52.018;8.552;2023-02-28T03:40:47;101998.97;;;-3.81;85.19
74633;BME280;63139;52.018;8.552;2023-02-28T03:43:22;101986.16;;;-3.86;85.81
74633;BME280;63139;52.018;8.552;2023-02-28T03:45:53;101990.50;;;-3.88;85.12
74633;BME280;63139;52.018;8.552;2023-02-28T03:48:26;101991.44;;;-3.91;85.31
74633;BME280;63139;52.018;8.552;2023-02-28T03:50:57;101986.34;;;-3.94;85.17
74633;BME280;63139;52.018;8.552;2023-02-28T03:53:29;102001.06;;;-3.96;85.25
74633;BME280;63139;52.018;8.552;2023-02-28T03:56:01;101994.25;;;-4.00;85.34
74633;BME280;63139;52.018;8.552;2023-02-28T03:58:37;102001.22;;;-4.02;85.79
74633;BME280;63139;52.018;8.552;2023-02-28T04:01:08;101998.66;;;-4.03;86.14
74633;BME280;63139;52.018;8.552;2023-02-28T04:03:39;102000.41;;;-4.05;85.73
74633;BME280;63139;52.018;8.552;2023-02-28T04:06:08;102002.16;;;-4.06;86.47
74633;BME280;63139;52.018;8.552;2023-02-28T04:08:42;102000.44;;;-4.07;86.38
74633;BME280;63139;52.018;8.552;2023-02-28T04:11:18;101999.59;;;-4.07;86.21
74633;BME280;63139;52.018;8.552;2023-02-28T04:13:47;102003.97;;;-4.09;86.04
74633;BME280;63139;52.018;8.552;2023-02-28T04:16:14;102004.00;;;-4.11;86.33
74633;BME280;63139;52.018;8.552;2023-02-28T04:18:59;102004.88;;;-4.12;86.25
74633;BME280;63139;52.018;8.552;2023-02-28T04:21:29;102004.94;;;-4.15;86.17
74633;BME280;63139;52.018;8.552;2023-02-28T04:23:59;102002.38;;;-4.15;86.22
74633;BME280;63139;52.018;8.552;2023-02-28T04:26:28;102004.13;;;-4.15;86.18
74633;BME280;63139;52.018;8.552;2023-02-28T04:28:57;101998.16;;;-4.19;86.40
74633;BME280;63139;52.018;8.552;2023-02-28T04:31:25;101998.16;;;-4.19;86.41
74633;BME280;63139;52.018;8.552;2023-02-28T04:33:54;101998.22;;;-4.22;86.42
74633;BME280;63139;52.018;8.552;2023-02-28T04:36:22;101994.84;;;-4.24;86.39
74633;BME280;63139;52.018;8.552;2023-02-28T04:38:50;101998.34;;;-4.26;86.17
74633;BME280;63139;52.018;8.552;2023-02-28T04:41:19;101997.47;;;-4.25;86.90
74633;BME280;63139;52.018;8.552;2023-02-28T04:43:48;102002.69;;;-4.28;86.57
74633;BME280;63139;52.018;8.552;2023-02-28T04:46:16;101995.91;;;-4.33;86.70
74633;BME280;63139;52.018;8.552;2023-02-28T04:48:44;102001.06;;;-4.31;86.46
74633;BME280;63139;52.018;8.552;2023-02-28T04:51:13;102005.38;;;-4.32;86.86
74633;BME280;63139;52.018;8.552;2023-02-28T04:53:42;102007.97;;;-4.32;86.83
74633;BME280;63139;52.018;8.552;2023-02-28T04:56:14;101995.06;;;-4.33;87.01
74633;BME280;63139;52.018;8.552;2023-02-28T04:58:44;101998.53;;;-4.34;87.28
74633;BME280;63139;52.018;8.552;2023-02-28T05:01:20;101998.56;;;-4.36;87.49
74633;BME280;63139;52.018;8.552;2023-02-28T05:03:48;102007.16;;;-4.35;87.17
74633;BME280;63139;52.018;8.552;2023-02-28T05:06:17;101996.91;;;-4.38;87.06
74633;BME280;63139;52.018;8.552;2023-02-28T05:08:45;101997.78;;;-4.38;87.03
74633;BME280;63139;52.018;8.552;2023-02-28T05:11:16;102003.88;;;-4.42;86.72
74633;BME280;63139;52.018;8.552;2023-02-28T05:13:46;102003.97;;;-4.45;86.73
74633;BME280;63139;52.018;8.552;2023-02-28T05:16:14;102013.50;;;-4.48;86.58
74633;BME280;63139;52.018;8.552;2023-02-28T05:18:43;102018.69;;;-4.48;86.38
74633;BME280;63139;52.018;8.552;2023-02-28T05:21:25;102015.28;;;-4.50;86.56
74633;BME280;63139;52.018;8.552;2023-02-28T05:23:55;102017.81;;;-4.49;87.12
74633;BME280;63139;52.018;8.552;2023-02-28T05:26:24;102019.56;;;-4.49;86.52
74633;BME280;63139;52.018;8.552;2023-02-28T05:28:54;102021.31;;;-4.51;86.58
74633;BME280;63139;52.018;8.552;2023-02-28T05:31:22;102021.31;;;-4.51;86.77
74633;BME280;63139;52.018;8.552;2023-02-28T05:33:50;102023.09;;;-4.53;86.98
74633;BME280;63139;52.018;8.552;2023-02-28T05:36:18;102026.56;;;-4.54;87.03
74633;BME280;63139;52.018;8.552;2023-02-28T05:38:46;102018.84;;;-4.56;86.95
74633;BME280;63139;52.018;8.552;2023-02-28T05:41:15;102027.47;;;-4.57;87.06
74633;BME280;63139;52.018;8.552;2023-02-28T05:43:43;102024.03;;;-4.57;87.23
74633;BME280;63139;52.018;8.552;2023-02-28T05:46:12;102024.06;;;-4.59;87.36
74633;BME280;63139;52.018;8.552;2023-02-28T05:48:46;102025.00;;;-4.61;86.90
74633;BME280;63139;52.018;8.552;2023-02-28T05:51:14;102032.78;;;-4.63;86.86
74633;BME280;63139;52.018;8.552;2023-02-28T05:53:42;102022.44;;;-4.63;86.90
74633;BME280;63139;52.018;8.552;2023-02-28T05:56:10;102025.06;;;-4.64;86.97
74633;BME280;63139;52.018;8.552;2023-02-28T05:58:38;102025.09;;;-4.66;86.94
74633;BME280;63139;52.018;8.552;2023-02-28T06:01:25;102014.75;;;-4.66;87.30
74633;BME280;63139;52.018;8.552;2023-02-28T06:03:58;102023.34;;;-4.64;87.05
74633;BME280;63139;52.018;8.552;2023-02-28T06:06:26;102020.75;;;-4.64;87.22
74633;BME280;63139;52.018;8.552;2023-02-28T06:08:53;102026.78;;;-4.65;86.75
74633;BME280;63139;52.018;8.552;2023-02-28T06:11:21;102029.31;;;-4.62;86.81
74633;BME280;63139;52.018;8.552;2023-02-28T06:13:54;102025.84;;;-4.61;86.88
74633;BME280;63139;52.018;8.552;2023-02-28T06:16:24;102027.59;;;-4.61;86.91
74633;BME280;63139;52.018;8.552;2023-02-28T06:18:52;102024.06;;;-4.59;86.61
74633;BME280;63139;52.018;8.552;2023-02-28T06:21:22;102018.88;;;-4.57;86.69
74633;BME280;63139;52.018;8.552;2023-02-28T06:23:50;102028.31;;;-4.56;86.77
74633;BME280;63139;52.018;8.552;2023-02-28T06:26:18;102022.28;;;-4.55;86.67
74633;BME280;63139;52.018;8.552;2023-02-28T06:28:46;102032.59;;;-4.54;86.15
74633;BME280;63139;52.018;8.552;2023-02-28T06:31:15;102032.56;;;-4.52;86.20
74633;BME280;63139;52.018;8.552;2023-02-28T06:33:46;102035.97;;;-4.52;85.76
74633;BME280;63139;52.018;8.552;2023-02-28T06:36:15;102040.25;;;-4.51;85.75
74633;BME280;63139;52.018;8.552;2023-02-28T06:38:44;102036.75;;;-4.48;85.88
74633;BME280;63139;52.018;8.552;2023-02-28T06:41:11;102047.06;;;-4.47;86.04
74633;BME280;63139;52.018;8.552;2023-02-28T06:43:41;102041.03;;;-4.46;85.89
74633;BME280;63139;52.018;8.552;2023-02-28T06:46:12;102045.19;;;-4.40;86.45
74633;BME280;63139;52.018;8.552;2023-02-28T06:48:42;102045.94;;;-4.35;86.59
74633;BME280;63139;52.018;8.552;2023-02-28T06:51:13;102048.38;;;-4.29;86.38
74633;BME280;63139;52.018;8.552;2023-02-28T06:53:41;102049.16;;;-4.25;86.20
74633;BME280;63139;52.018;8.552;2023-02-28T06:56:11;102055.91;;;-4.18;86.39
74633;BME280;63139;52.018;8.552;2023-02-28T06:58:40;102055.78;;;-4.14;86.83
74633;BME280;63139;52.018;8.552;2023-02-28T07:01:08;102060.75;;;-4.06;86.99
74633;BME280;63139;52.018;8.552;2023-02-28T07:03:36;102060.66;;;-4.00;86.61
74633;BME280;63139;52.018;8.552;2023-02-28T07:06:05;102056.97;;;-3.92;86.66
74633;BME280;63139;52.018;8.552;2023-02-28T07:08:34;102060.22;;;-3.83;86.64
74633;BME280;63139;52.018;8.552;2023-02-28T07:11:03;102064.31;;;-3.75;86.85
74633;BME280;63139;52.018;8.552;2023-02-28T07:13:31;102069.31;;;-3.67;86.78
74633;BME280;63139;52.018;8.552;2023-02-28T07:16:00;102078.59;;;-3.59;86.62
74633;BME280;63139;52.018;8.552;2023-02-28T07:18:28;102074.94;;;-3.52;86.67
74633;BME280;63139;52.018;8.552;2023-02-28T07:20:56;102073.88;;;-3.43;86.27
74633;BME280;63139;52.018;8.552;2023-02-28T07:23:24;102071.03;;;-3.34;86.06
74633;BME280;63139;52.018;8.552;2023-02-28T07:25:53;102082.03;;;-3.26;85.84
74633;BME280;63139;52.018;8.552;2023-02-28T07:28:21;102075.78;;;-3.19;85.53
74633;BME280;63139;52.018;8.552;2023-02-28T07:30:49;102079.94;;;-3.11;85.54
74633;BME280;63139;52.018;8.552;2023-02-28T07:33:17;102077.16;;;-3.04;85.76
74633;BME280;63139;52.018;8.552;2023-02-28T07:35:44;102079.56;;;-2.98;85.28
74633;BME280;63139;52.018;8.552;2023-02-28T07:38:12;102085.41;;;-2.91;84.95
74633;BME280;63139;52.018;8.552;2023-02-28T07:40:40;102085.16;;;-2.82;85.43
74633;BME280;63139;52.018;8.552;2023-02-28T07:43:09;102086.63;;;-2.74;85.34
74633;BME280;63139;52.018;8.552;2023-02-28T07:45:37;102091.50;;;-2.63;85.34
74633;BME280;63139;52.018;8.552;2023-02-28T07:48:05;102089.56;;;-2.55;85.38
74633;BME280;63139;52.018;8.552;2023-02-28T07:50:33;102090.13;;;-2.45;84.98
74633;BME280;63139;52.018;8.552;2023-02-28T07:53:01;102086.31;;;-2.33;85.22
74633;BME280;63139;52.018;8.552;2023-02-28T07:55:29;102095.53;;;-2.23;84.56
74633;BME280;63139;52.018;8.552;2023-02-28T07:57:57;102086.59;;;-2.15;84.55
74633;BME280;63139;52.018;8.552;2023-02-28T08:00:26;102087.16;;;-2.05;84.17
74633;BME280;63139;52.018;8.552;2023-02-28T08:02:55;102085.13;;;-1.96;84.09
74633;BME280;63139;52.018;8.552;2023-02-28T08:05:23;102086.56;;;-1.85;83.64
74633;BME280;63139;52.018;8.552;2023-02-28T08:07:50;102081.03;;;-1.76;83.78
74633;BME280;63139;52.018;8.552;2023-02-28T08:10:19;102076.50;;;-1.70;83.82
74633;BME280;63139;52.018;8.552;2023-02-28T08:12:47;102090.88;;;-1.60;83.09
74633;BME280;63139;52.018;8.552;2023-02-28T08:15:15;102081.91;;;-1.49;82.88
74633;BME280;63139;52.018;8.552;2023-02-28T08:17:44;102080.75;;;-1.41;82.32
74633;BME280;63139;52.018;8.552;2023-02-28T08:20:12;102085.59;;;-1.32;81.83
74633;BME280;63139;52.018;8.552;2023-02-28T08:22:40;102082.69;;;-1.23;80.84
74633;BME280;63139;52.018;8.552;2023-02-28T08:25:11;102084.97;;;-1.13;79.78
74633;BME280;63139;52.018;8.552;2023-02-28T08:27:39;102075.22;;;-1.07;79.36
74633;BME280;63139;52.018;8.552;2023-02-28T08:30:08;102077.50;;;-0.98;78.52
74633;BME280;63139;52.018;8.552;2023-02-28T08:32:37;102073.78;;;-0.91;77.82
74633;BME280;63139;52.018;8.552;2023-02-28T08:35:07;102079.53;;;-0.83;77.30
74633;BME280;63139;52.018;8.552;2023-02-28T08:37:36;102077.59;;;-0.77;77.26
74633;BME280;63139;52.018;8.552;2023-02-28T08:40:05;102075.63;;;-0.71;77.75
74633;BME280;63139;52.018;8.552;2023-02-28T08:42:33;102082.34;;;-0.65;76.78
74633;BME280;63139;52.018;8.552;2023-02-28T08:45:01;102084.81;;;-0.61;76.88
74633;BME280;63139;52.018;8.552;2023-02-28T08:47:29;102087.97;;;-0.53;75.39
74633;BME280;63139;52.018;8.552;2023-02-28T08:49:57;102086.03;;;-0.48;74.60
74633;BME280;63139;52.018;8.552;2023-02-28T08:52:26;102083.00;;;-0.37;74.00
74633;BME280;63139;52.018;8.552;2023-02-28T08:54:54;102077.50;;;-0.29;73.94
74633;BME280;63139;52.018;8.552;2023-02-28T08:57:22;102087.63;;;-0.22;74.02
74633;BME280;63139;52.018;8.552;2023-02-28T08:59:49;102089.88;;;-0.13;73.32
74633;BME280;63139;52.018;8.552;2023-02-28T09:02:17;102090.38;;;-0.03;72.71
74633;BME280;63139;52.018;8.552;2023-02-28T09:04:46;102092.63;;;0.06;72.37
74633;BME280;63139;52.018;8.552;2023-02-28T09:07:13;102090.47;;;0.16;72.02
74633;BME280;63139;52.018;8.552;2023-02-28T09:09:43;102098.72;;;0.27;70.80
74633;BME280;63139;52.018;8.552;2023-02-28T09:12:21;102087.06;;;0.35;71.18
74633;BME280;63139;52.018;8.552;2023-02-28T09:14:49;102081.47;;;0.45;71.03
74633;BME280;63139;52.018;8.552;2023-02-28T09:17:18;102075.16;;;0.50;70.44
74633;BME280;63139;52.018;8.552;2023-02-28T09:19:47;102080.19;;;0.55;69.65
74633;BME280;63139;52.018;8.552;2023-02-28T09:22:15;102077.25;;;0.62;68.94
74633;BME280;63139;52.018;8.552;2023-02-28T09:24:44;102070.88;;;0.69;69.25
74633;BME280;63139;52.018;8.552;2023-02-28T09:27:12;102070.47;;;0.78;68.65
74633;BME280;63139;52.018;8.552;2023-02-28T09:29:40;102066.63;;;0.87;68.27
74633;BME280;63139;52.018;8.552;2023-02-28T09:32:07;102069.66;;;0.97;67.78
74633;BME280;63139;52.018;8.552;2023-02-28T09:34:35;102075.59;;;1.00;68.46
74633;BME280;63139;52.018;8.552;2023-02-28T09:37:03;102075.53;;;1.02;67.73
74633;BME280;63139;52.018;8.552;2023-02-28T09:39:31;102072.44;;;1.12;67.02
74633;BME280;63139;52.018;8.552;2023-02-28T09:42:02;102080.25;;;1.33;66.49
74633;BME280;63139;52.018;8.552;2023-02-28T09:44:35;102068.47;;;1.62;66.01
74633;BME280;63139;52.018;8.552;2023-02-28T09:47:10;102075.84;;;1.89;64.79
74633;BME280;63139;52.018;8.552;2023-02-28T09:49:42;102079.19;;;2.10;65.52
74633;BME280;63139;52.018;8.552;2023-02-28T09:52:17;102074.97;;;2.25;64.52
74633;BME280;63139;52.018;8.552;2023-02-28T09:54:45;102070.66;;;2.24;64.86
74633;BME280;63139;52.018;8.552;2023-02-28T09:57:19;102076.66;;;2.26;63.29
74633;BME280;63139;52.018;8.552;2023-02-28T10:00:01;102075.69;;;2.28;60.69
74633;BME280;63139;52.018;8.552;2023-02-28T10:02:54;102071.13;;;2.32;59.90
74633;BME280;63139;52.018;8.552;2023-02-28T10:05:27;102076.06;;;2.38;61.80
74633;BME280;63139;52.018;8.552;2023-02-28T10:08:05;102079.22;;;2.45;60.74
74633;BME280;63139;52.018;8.552;2023-02-28T10:10:39;102084.22;;;2.49;59.06
74633;BME280;63139;52.018;8.552;2023-02-28T10:13:16;102070.84;;;2.55;58.81
74633;BME280;63139;52.018;8.552;2023-02-28T10:15:47;102069.94;;;2.56;58.97
74633;BME280;63139;52.018;8.552;2023-02-28T10:18:21;102078.69;;;2.72;59.79
74633;BME280;63139;52.018;8.552;2023-02-28T10:20:51;102076.44;;;2.82;59.04
74633;BME280;63139;52.018;8.552;2023-02-28T10:23:21;102073.97;;;2.96;59.88
74633;BME280;63139;52.018;8.552;2023-02-28T10:25:55;102068.09;;;3.08;60.14
74633;BME280;63139;52.018;8.552;2023-02-28T10:28:32;102073.09;;;3.29;60.03
74633;BME280;63139;52.018;8.552;2023-02-28T10:31:00;102063.50;;;3.61;57.91
74633;BME280;63139;52.018;8.552;2023-02-28T10:33:30;102060.06;;;3.76;58.43
74633;BME280;63139;52.018;8.552;2023-02-28T10:35:58;102060.84;;;4.08;57.40
74633;BME280;63139;52.018;8.552;2023-02-28T10:38:28;102052.03;;;4.24;56.19
74633;BME280;63139;52.018;8.552;2023-02-28T10:41:07;102060.56;;;4.28;54.40
74633;BME280;63139;52.018;8.552;2023-02-28T10:43:38;102053.88;;;4.22;54.39
74633;BME280;63139;52.018;8.552;2023-02-28T10:46:13;102055.97;;;4.32;55.50
74633;BME280;63139;52.018;8.552;2023-02-28T10:48:44;102049.63;;;4.36;54.70
74633;BME280;63139;52.018;8.552;2023-02-28T10:51:16;102060.78;;;4.39;54.08
74633;BME280;63139;52.018;8.552;2023-02-28T10:53:48;102047.97;;;4.49;52.88
74633;BME280;63139;52.018;8.552;2023-02-28T10:56:27;102054.00;;;4.51;51.45
74633;BME280;63139;52.018;8.552;2023-02-28T10:58:59;102060.38;;;4.75;51.96
74633;BME280;63139;52.018;8.552;2023-02-28T11:01:36;102055.44;;;4.71;49.71
74633;BME280;63139;52.018;8.552;2023-02-28T11:04:16;102048.97;;;4.76;50.01
74633;BME280;63139;52.018;8.552;2023-02-28T11:06:46;102060.50;;;4.74;50.99
74633;BME280;63139;52.018;8.552;2023-02-28T11:09:23;102033.88;;;4.65;50.81
74633;BME280;63139;52.018;8.552;2023-02-28T11:11:53;102054.84;;;4.51;51.52
74633;BME280;63139;52.018;8.552;2023-02-28T11:14:24;102046.25;;;4.34;50.78
74633;BME280;63139;52.018;8.552;2023-02-28T11:16:53;102047.41;;;4.14;52.18
74633;BME280;63139;52.018;8.552;2023-02-28T11:19:25;102053.53;;;3.99;51.77
74633;BME280;63139;52.018;8.552;2023-02-28T11:21:57;102040.38;;;3.84;50.91
74633;BME280;63139;52.018;8.552;2023-02-28T11:24:27;102043.56;;;3.74;51.05
74633;BME280;63139;52.018;8.552;2023-02-28T11:26:56;102042.16;;;3.68;52.14
74633;BME280;63139;52.018;8.552;2023-02-28T11:29:28;102044.50;;;3.57;52.01
74633;BME280;63139;52.018;8.552;2023-02-28T11:32:15;102035.56;;;3.61;52.15
74633;BME280;63139;52.018;8.552;2023-02-28T11:34:44;102042.06;;;3.54;52.63
74633;BME280;63139;52.018;8.552;2023-02-28T11:37:15;102034.63;;;3.46;53.38
74633;BME280;63139;52.018;8.552;2023-02-28T11:39:44;102038.94;;;3.47;53.11
74633;BME280;63139;52.018;8.552;2023-02-28T11:42:26;102041.97;;;3.40;51.89
74633;BME280;63139;52.018;8.552;2023-02-28T11:45:11;102039.66;;;3.34;52.36
74633;BME280;63139;52.018;8.552;2023-02-28T11:47:46;102031.00;;;3.33;52.90
74633;BME280;63139;52.018;8.552;2023-02-28T11:50:21;102020.84;;;3.43;52.65
74633;BME280;63139;52.018;8.552;2023-02-28T11:52:54;102022.28;;;3.48;53.01
74633;BME280;63139;52.018;8.552;2023-02-28T11:55:25;102015.03;;;3.54;52.73
74633;BME280;63139;52.018;8.552;2023-02-28T11:58:14;102018.06;;;3.62;51.69
74633;BME280;63139;52.018;8.552;2023-02-28T12:03:43;102004.88;;;3.79;52.80
74633;BME280;63139;52.018;8.552;2023-02-28T12:06:20;102004.78;;;3.80;52.70
74633;BME280;63139;52.018;8.552;2023-02-28T12:09:03;102006.31;;;3.84;53.22
74633;BME280;63139;52.018;8.552;2023-02-28T12:11:48;102002.94;;;3.82;52.51
74633;BME280;63139;52.018;8.552;2023-02-28T12:14:46;101998.94;;;3.91;51.28
74633;BME280;63139;52.018;8.552;2023-02-28T12:17:30;101996.25;;;3.93;52.04
74633;BME280;63139;52.018;8.552;2023-02-28T12:20:08;101991.94;;;3.92;51.32
74633;BME280;63139;52.018;8.552;2023-02-28T12:22:47;101987.09;;;4.00;52.74
74633;BME280;63139;52.018;8.552;2023-02-28T12:25:48;101983.78;;;3.96;51.04
74633;BME280;63139;52.018;8.552;2023-02-28T12:28:21;101982.31;;;3.92;52.56
74633;BME280;63139;52.018;8.552;2023-02-28T12:30:54;101991.66;;;3.96;51.46
74633;BME280;63139;52.018;8.552;2023-02-28T12:33:30;101986.06;;;4.02;51.10
74633;BME280;63139;52.018;8.552;2023-02-28T12:36:04;101975.84;;;3.98;51.22
74633;BME280;63139;52.018;8.552;2023-02-28T12:38:36;101977.44;;;4.00;51.88
74633;BME280;63139;52.018;8.552;2023-02-28T12:41:10;101976.34;;;4.04;52.06
74633;BME280;63139;52.018;8.552;2023-02-28T12:43:43;101977.94;;;4.07;52.02
74633;BME280;63139;52.018;8.552;2023-02-28T12:46:15;101973.56;;;4.07;51.38
74633;BME280;63139;52.018;8.552;2023-02-28T12:48:50;101966.44;;;4.09;51.92
74633;BME280;63139;52.018;8.552;2023-02-28T12:51:20;101957.47;;;4.13;52.39
74633;BME280;63139;52.018;8.552;2023-02-28T12:53:54;101956.78;;;4.10;51.47
74633;BME280;63139;52.018;8.552;2023-02-28T12:56:33;101954.16;;;4.10;51.63
74633;BME280;63139;52.018;8.552;2023-02-28T12:59:12;101945.28;;;4.12;50.58
74633;BME280;63139;52.018;8.552;2023-02-28T13:01:56;101952.03;;;4.16;50.46
74633;BME280;63139;52.018;8.552;2023-02-28T13:04:46;101946.53;;;4.21;51.33
74633;BME280;63139;52.018;8.552;2023-02-28T13:10:13;101947.19;;;4.24;51.00
74633;BME280;63139;52.018;8.552;2023-02-28T13:12:48;101939.22;;;4.26;50.47
74633;BME280;63139;52.018;8.552;2023-02-28T13:15:18;101933.91;;;4.27;51.98
74633;BME280;63139;52.018;8.552;2023-02-28T13:17:50;101923.50;;;4.26;51.82
74633;BME280;63139;52.018;8.552;2023-02-28T13:20:21;101928.84;;;4.24;50.82
74633;BME280;63139;52.018;8.552;2023-02-28T13:22:52;101926.81;;;4.29;51.46
74633;BME280;63139;52.018;8.552;2023-02-28T13:25:51;101922.28;;;4.32;50.28